sensor_id;sensor_type;location;lat;lon;timestamp;pressure;altitude;pressure_sealevel;temperature;humidity
55755;BME280;41674;52.290;-1.474;2023-10-19T00:01:37;97669.03;;;11.22;100.00
55755;BME280;41674;52.290;-1.474;2023-10-19T00:04:09;97678.34;;;10.83;100.00
55755;BME280;41674;52.290;-1.474;2023-10-19T00:06:37;97677.10;;;11.11;100.00
55755;BME280;41674;52.290;-1.474;2023-10-19T00:09:06;97671.38;;;11.08;100.00
55755;BME280;41674;52.290;-1.474;2023-10-19T00:11:36;97670.35;;;11.25;100.00
55755;BME280;41674;52.290;-1.474;2023-10-19T00:14:08;97672.24;;;10.80;100.00
55755;BME280;41674;52.290;-1.474;2023-10-19T00:16:35;97677.76;;;11.59;100.00
55755;BME280;41674;52.290;-1.474;2023-10-19T00:19:06;97673.78;;;11.81;100.00
55755;BME280;41674;52.290;-1.474;2023-10-19T00:21:36;97680.26;;;11.68;100.00
55755;BME280;41674;52.290;-1.474;2023-10-19T00:24:05;97685.56;;;11.76;100.00
55755;BME280;41674;52.290;-1.474;2023-10-19T00:26:38;97683.28;;;11.81;100.00
55755;BME280;41674;52.290;-1.474;2023-10-19T00:29:03;97686.98;;;11.23;100.00
55755;BME280;41674;52.290;-1.474;2023-10-19T00:31:33;97686.17;;;11.67;100.00
55755;BME280;41674;52.290;-1.474;2023-10-19T00:34:02;97687.85;;;12.29;100.00
55755;BME280;41674;52.290;-1.474;2023-10-19T00:36:32;97685.25;;;13.11;100.00
55755;BME280;41674;52.290;-1.474;2023-10-19T00:39:01;97680.78;;;13.29;100.00
55755;BME280;41674;52.290;-1.474;2023-10-19T00:41:31;97687.01;;;13.25;100.00
55755;BME280;41674;52.290;-1.474;2023-10-19T00:44:01;97686.94;;;12.98;100.00
55755;BME280;41674;52.290;-1.474;2023-10-19T00:46:30;97689.19;;;13.37;100.00
55755;BME280;41674;52.290;-1.474;2023-10-19T00:49:02;97683.43;;;13.41;100.00
55755;BME280;41674;52.290;-1.474;2023-10-19T00:51:33;97691.51;;;13.26;100.00
55755;BME280;41674;52.290;-1.474;2023-10-19T00:54:04;97698.05;;;12.59;100.00
55755;BME280;41674;52.290;-1.474;2023-10-19T00:56:28;97697.75;;;13.05;100.00
55755;BME280;41674;52.290;-1.474;2023-10-19T00:58:58;97701.05;;;13.20;100.00
55755;BME280;41674;52.290;-1.474;2023-10-19T01:01:29;97704.57;;;12.48;100.00
55755;BME280;41674;52.290;-1.474;2023-10-19T01:03:57;97697.94;;;12.78;100.00
55755;BME280;41674;52.290;-1.474;2023-10-19T01:06:27;97706.19;;;12.68;100.00
55755;BME280;41674;52.290;-1.474;2023-10-19T01:08:56;97706.36;;;12.86;100.00
55755;BME280;41674;52.290;-1.474;2023-10-19T01:11:26;97714.56;;;12.04;100.00
55755;BME280;41674;52.290;-1.474;2023-10-19T01:13:57;97714.72;;;12.39;100.00
55755;BME280;41674;52.290;-1.474;2023-10-19T01:16:25;97707.61;;;12.09;100.00
55755;BME280;41674;52.290;-1.474;2023-10-19T01:19:00;97705.53;;;13.11;100.00
55755;BME280;41674;52.290;-1.474;2023-10-19T01:21:24;97713.87;;;12.31;100.00
55755;BME280;41674;52.290;-1.474;2023-10-19T01:23:53;97719.75;;;12.63;100.00
55755;BME280;41674;52.290;-1.474;2023-10-19T01:26:23;97718.04;;;12.04;100.00
55755;BME280;41674;52.290;-1.474;2023-10-19T01:28:53;97719.03;;;12.56;100.00
55755;BME280;41674;52.290;-1.474;2023-10-19T01:31:22;97726.89;;;12.74;100.00
55755;BME280;41674;52.290;-1.474;2023-10-19T01:33:52;97724.38;;;13.22;100.00
55755;BME280;41674;52.290;-1.474;2023-10-19T01:36:22;97723.17;;;13.34;100.00
55755;BME280;41674;52.290;-1.474;2023-10-19T01:38:52;97726.44;;;12.51;100.00
55755;BME280;41674;52.290;-1.474;2023-10-19T01:41:22;97734.60;;;11.95;100.00
55755;BME280;41674;52.290;-1.474;2023-10-19T01:44:00;97739.59;;;11.43;100.00
55755;BME280;41674;52.290;-1.474;2023-10-19T01:46:25;97741.66;;;11.83;100.00
55755;BME280;41674;52.290;-1.474;2023-10-19T01:48:53;97735.99;;;11.77;100.00
55755;BME280;41674;52.290;-1.474;2023-10-19T01:51:20;97737.48;;;11.70;100.00
55755;BME280;41674;52.290;-1.474;2023-10-19T01:53:55;97750.04;;;12.21;100.00
55755;BME280;41674;52.290;-1.474;2023-10-19T01:56:19;97752.58;;;11.30;100.00
55755;BME280;41674;52.290;-1.474;2023-10-19T01:58:49;97742.12;;;11.25;100.00
55755;BME280;41674;52.290;-1.474;2023-10-19T02:01:17;97733.38;;;10.80;100.00
55755;BME280;41674;52.290;-1.474;2023-10-19T02:03:48;97737.35;;;11.02;100.00
55755;BME280;41674;52.290;-1.474;2023-10-19T02:06:17;97733.60;;;11.01;100.00
55755;BME280;41674;52.290;-1.474;2023-10-19T02:08:48;97740.70;;;11.28;100.00
55755;BME280;41674;52.290;-1.474;2023-10-19T02:11:25;97742.39;;;11.32;100.00
55755;BME280;41674;52.290;-1.474;2023-10-19T02:13:46;97738.23;;;11.76;100.00
55755;BME280;41674;52.290;-1.474;2023-10-19T02:18:44;97734.33;;;11.60;100.00
55755;BME280;41674;52.290;-1.474;2023-10-19T02:21:14;97742.60;;;11.20;100.00
55755;BME280;41674;52.290;-1.474;2023-10-19T02:23:44;97738.13;;;11.64;100.00
55755;BME280;41674;52.290;-1.474;2023-10-19T02:26:14;97747.68;;;11.50;100.00
55755;BME280;41674;52.290;-1.474;2023-10-19T02:28:42;97747.39;;;12.03;100.00
55755;BME280;41674;52.290;-1.474;2023-10-19T02:31:12;97747.33;;;11.65;100.00
55755;BME280;41674;52.290;-1.474;2023-10-19T02:33:42;97752.94;;;11.77;100.00
55755;BME280;41674;52.290;-1.474;2023-10-19T02:36:12;97755.40;;;12.32;100.00
55755;BME280;41674;52.290;-1.474;2023-10-19T02:38:41;97744.42;;;12.49;100.00
55755;BME280;41674;52.290;-1.474;2023-10-19T02:41:20;97737.70;;;13.02;100.00
55755;BME280;41674;52.290;-1.474;2023-10-19T02:43:41;97737.99;;;13.00;100.00
55755;BME280;41674;52.290;-1.474;2023-10-19T02:46:11;97751.05;;;12.34;100.00
55755;BME280;41674;52.290;-1.474;2023-10-19T02:48:39;97756.92;;;13.01;100.00
55755;BME280;41674;52.290;-1.474;2023-10-19T02:51:10;97756.19;;;13.11;100.00
55755;BME280;41674;52.290;-1.474;2023-10-19T02:53:39;97748.93;;;12.71;100.00
55755;BME280;41674;52.290;-1.474;2023-10-19T02:56:13;97744.83;;;12.80;100.00
55755;BME280;41674;52.290;-1.474;2023-10-19T02:58:41;97734.26;;;12.94;100.00
55755;BME280;41674;52.290;-1.474;2023-10-19T03:01:16;97731.68;;;13.14;100.00
55755;BME280;41674;52.290;-1.474;2023-10-19T03:03:37;97740.60;;;13.61;100.00
55755;BME280;41674;52.290;-1.474;2023-10-19T03:06:06;97742.09;;;13.32;100.00
55755;BME280;41674;52.290;-1.474;2023-10-19T03:08:36;97744.07;;;12.84;100.00
55755;BME280;41674;52.290;-1.474;2023-10-19T03:11:05;97733.58;;;14.46;99.22
55755;BME280;41674;52.290;-1.474;2023-10-19T03:13:35;97731.84;;;14.09;99.50
55755;BME280;41674;52.290;-1.474;2023-10-19T03:16:07;97727.51;;;13.12;100.00
55755;BME280;41674;52.290;-1.474;2023-10-19T03:18:35;97724.19;;;13.79;100.00
55755;BME280;41674;52.290;-1.474;2023-10-19T03:21:08;97726.72;;;13.64;100.00
55755;BME280;41674;52.290;-1.474;2023-10-19T03:23:33;97732.93;;;13.24;100.00
55755;BME280;41674;52.290;-1.474;2023-10-19T03:26:02;97729.45;;;12.86;100.00
55755;BME280;41674;52.290;-1.474;2023-10-19T03:28:32;97725.12;;;12.77;100.00
55755;BME280;41674;52.290;-1.474;2023-10-19T03:31:06;97712.69;;;13.51;100.00
55755;BME280;41674;52.290;-1.474;2023-10-19T03:33:32;97716.55;;;12.85;100.00
55755;BME280;41674;52.290;-1.474;2023-10-19T03:36:01;97714.35;;;12.54;100.00
55755;BME280;41674;52.290;-1.474;2023-10-19T03:38:30;97718.17;;;12.63;100.00
55755;BME280;41674;52.290;-1.474;2023-10-19T03:41:00;97718.15;;;13.05;100.00
55755;BME280;41674;52.290;-1.474;2023-10-19T03:43:30;97720.26;;;11.94;100.00
55755;BME280;41674;52.290;-1.474;2023-10-19T03:45:59;97721.35;;;12.27;100.00
55755;BME280;41674;52.290;-1.474;2023-10-19T03:48:28;97720.79;;;12.18;100.00
55755;BME280;41674;52.290;-1.474;2023-10-19T03:50:58;97708.46;;;13.20;100.00
55755;BME280;41674;52.290;-1.474;2023-10-19T03:53:27;97710.18;;;13.33;100.00
55755;BME280;41674;52.290;-1.474;2023-10-19T03:55:57;97706.50;;;14.05;100.00
55755;BME280;41674;52.290;-1.474;2023-10-19T03:58:27;97705.54;;;14.04;100.00
55755;BME280;41674;52.290;-1.474;2023-10-19T04:00:56;97701.84;;;13.05;100.00
55755;BME280;41674;52.290;-1.474;2023-10-19T04:03:25;97695.70;;;13.43;100.00
55755;BME280;41674;52.290;-1.474;2023-10-19T04:05:56;97694.14;;;13.62;100.00
55755;BME280;41674;52.290;-1.474;2023-10-19T04:08:25;97700.93;;;13.03;100.00
55755;BME280;41674;52.290;-1.474;2023-10-19T04:10:55;97692.20;;;13.46;100.00
55755;BME280;41674;52.290;-1.474;2023-10-19T04:13:24;97693.43;;;14.48;100.00
55755;BME280;41674;52.290;-1.474;2023-10-19T04:15:53;97688.01;;;15.01;100.00
55755;BME280;41674;52.290;-1.474;2023-10-19T04:18:23;97687.18;;;13.77;100.00
55755;BME280;41674;52.290;-1.474;2023-10-19T04:20:53;97682.36;;;13.90;100.00
55755;BME280;41674;52.290;-1.474;2023-10-19T04:23:23;97680.71;;;14.58;100.00
55755;BME280;41674;52.290;-1.474;2023-10-19T04:25:52;97675.20;;;14.05;100.00
55755;BME280;41674;52.290;-1.474;2023-10-19T04:28:21;97677.50;;;14.70;100.00
55755;BME280;41674;52.290;-1.474;2023-10-19T04:30:51;97676.28;;;14.80;100.00
55755;BME280;41674;52.290;-1.474;2023-10-19T04:33:27;97671.95;;;14.96;100.00
55755;BME280;41674;52.290;-1.474;2023-10-19T04:35:58;97667.04;;;15.36;99.99
55755;BME280;41674;52.290;-1.474;2023-10-19T04:38:20;97662.21;;;15.75;99.23
55755;BME280;41674;52.290;-1.474;2023-10-19T04:40:52;97664.00;;;15.76;97.01
55755;BME280;41674;52.290;-1.474;2023-10-19T04:45:49;97672.99;;;16.25;94.88
55755;BME280;41674;52.290;-1.474;2023-10-19T04:48:23;97665.90;;;16.32;94.45
55755;BME280;41674;52.290;-1.474;2023-10-19T04:50:47;97665.84;;;16.52;93.53
55755;BME280;41674;52.290;-1.474;2023-10-19T04:53:17;97661.39;;;16.35;93.13
55755;BME280;41674;52.290;-1.474;2023-10-19T04:55:46;97654.04;;;15.70;93.98
55755;BME280;41674;52.290;-1.474;2023-10-19T04:58:16;97649.03;;;16.54;93.34
55755;BME280;41674;52.290;-1.474;2023-10-19T05:00:45;97646.25;;;16.51;93.19
55755;BME280;41674;52.290;-1.474;2023-10-19T05:03:16;97641.69;;;15.97;95.86
55755;BME280;41674;52.290;-1.474;2023-10-19T05:05:44;97641.08;;;15.50;96.25
55755;BME280;41674;52.290;-1.474;2023-10-19T05:08:14;97638.34;;;15.84;95.19
55755;BME280;41674;52.290;-1.474;2023-10-19T05:10:44;97639.27;;;16.20;94.80
55755;BME280;41674;52.290;-1.474;2023-10-19T05:13:16;97632.09;;;15.97;95.57
55755;BME280;41674;52.290;-1.474;2023-10-19T05:15:42;97634.02;;;15.91;95.87
55755;BME280;41674;52.290;-1.474;2023-10-19T05:18:12;97628.01;;;15.01;98.85
55755;BME280;41674;52.290;-1.474;2023-10-19T05:20:46;97626.53;;;14.84;100.00
55755;BME280;41674;52.290;-1.474;2023-10-19T05:23:11;97623.37;;;15.07;99.08
55755;BME280;41674;52.290;-1.474;2023-10-19T05:25:41;97621.92;;;14.60;100.00
55755;BME280;41674;52.290;-1.474;2023-10-19T05:28:11;97621.57;;;15.04;97.40
55755;BME280;41674;52.290;-1.474;2023-10-19T05:30:41;97622.45;;;15.24;100.00
55755;BME280;41674;52.290;-1.474;2023-10-19T05:33:11;97619.85;;;14.95;100.00
55755;BME280;41674;52.290;-1.474;2023-10-19T05:35:39;97620.43;;;14.71;100.00
55755;BME280;41674;52.290;-1.474;2023-10-19T05:38:08;97616.70;;;15.69;98.00
55755;BME280;41674;52.290;-1.474;2023-10-19T05:40:40;97604.70;;;15.80;98.39
55755;BME280;41674;52.290;-1.474;2023-10-19T05:43:09;97605.62;;;14.91;100.00
55755;BME280;41674;52.290;-1.474;2023-10-19T05:45:38;97597.30;;;15.01;100.00
55755;BME280;41674;52.290;-1.474;2023-10-19T05:48:07;97599.21;;;13.83;100.00
55755;BME280;41674;52.290;-1.474;2023-10-19T05:53:06;97585.47;;;14.57;100.00
55755;BME280;41674;52.290;-1.474;2023-10-19T05:55:36;97590.85;;;14.74;100.00
55755;BME280;41674;52.290;-1.474;2023-10-19T05:58:05;97587.08;;;15.11;100.00
55755;BME280;41674;52.290;-1.474;2023-10-19T06:00:35;97589.06;;;14.94;100.00
55755;BME280;41674;52.290;-1.474;2023-10-19T06:03:05;97588.60;;;14.41;100.00
55755;BME280;41674;52.290;-1.474;2023-10-19T06:05:33;97587.77;;;13.70;100.00
55755;BME280;41674;52.290;-1.474;2023-10-19T06:08:03;97590.38;;;13.32;100.00
55755;BME280;41674;52.290;-1.474;2023-10-19T06:10:33;97587.81;;;14.21;100.00
55755;BME280;41674;52.290;-1.474;2023-10-19T06:13:02;97591.78;;;14.06;100.00
55755;BME280;41674;52.290;-1.474;2023-10-19T06:15:32;97591.63;;;14.37;100.00
55755;BME280;41674;52.290;-1.474;2023-10-19T06:18:02;97594.03;;;15.17;100.00
55755;BME280;41674;52.290;-1.474;2023-10-19T06:20:31;97597.22;;;14.46;100.00
55755;BME280;41674;52.290;-1.474;2023-10-19T06:23:00;97603.97;;;13.84;100.00
55755;BME280;41674;52.290;-1.474;2023-10-19T06:25:31;97599.40;;;15.08;100.00
55755;BME280;41674;52.290;-1.474;2023-10-19T06:28:00;97594.56;;;14.86;100.00
55755;BME280;41674;52.290;-1.474;2023-10-19T06:30:31;97596.80;;;14.80;100.00
55755;BME280;41674;52.290;-1.474;2023-10-19T06:33:00;97589.54;;;14.16;100.00
55755;BME280;41674;52.290;-1.474;2023-10-19T06:35:29;97585.33;;;14.80;100.00
55755;BME280;41674;52.290;-1.474;2023-10-19T06:37:58;97587.08;;;15.17;100.00
55755;BME280;41674;52.290;-1.474;2023-10-19T06:40:27;97602.69;;;13.99;100.00
55755;BME280;41674;52.290;-1.474;2023-10-19T06:42:57;97597.63;;;14.55;100.00
55755;BME280;41674;52.290;-1.474;2023-10-19T06:45:26;97597.07;;;15.21;100.00
55755;BME280;41674;52.290;-1.474;2023-10-19T06:47:56;97605.55;;;14.08;100.00
55755;BME280;41674;52.290;-1.474;2023-10-19T06:50:26;97608.53;;;13.40;100.00
55755;BME280;41674;52.290;-1.474;2023-10-19T06:52:55;97613.58;;;14.46;100.00
55755;BME280;41674;52.290;-1.474;2023-10-19T06:55:24;97621.25;;;14.32;100.00
55755;BME280;41674;52.290;-1.474;2023-10-19T06:57:55;97625.03;;;14.24;100.00
55755;BME280;41674;52.290;-1.474;2023-10-19T07:00:29;97621.59;;;14.70;100.00
55755;BME280;41674;52.290;-1.474;2023-10-19T07:02:54;97631.35;;;14.04;100.00
55755;BME280;41674;52.290;-1.474;2023-10-19T07:05:23;97631.76;;;14.97;100.00
55755;BME280;41674;52.290;-1.474;2023-10-19T07:07:52;97630.90;;;13.72;100.00
55755;BME280;41674;52.290;-1.474;2023-10-19T07:10:23;97631.68;;;15.00;100.00
55755;BME280;41674;52.290;-1.474;2023-10-19T07:12:53;97642.96;;;14.08;100.00
55755;BME280;41674;52.290;-1.474;2023-10-19T07:15:21;97637.76;;;13.93;100.00
55755;BME280;41674;52.290;-1.474;2023-10-19T07:17:51;97636.39;;;14.60;100.00
55755;BME280;41674;52.290;-1.474;2023-10-19T07:20:20;97630.35;;;14.42;100.00
55755;BME280;41674;52.290;-1.474;2023-10-19T07:22:50;97634.80;;;14.18;100.00
55755;BME280;41674;52.290;-1.474;2023-10-19T07:25:20;97630.72;;;15.19;100.00
55755;BME280;41674;52.290;-1.474;2023-10-19T07:27:49;97634.10;;;14.26;100.00
55755;BME280;41674;52.290;-1.474;2023-10-19T07:30:19;97625.37;;;14.97;100.00
55755;BME280;41674;52.290;-1.474;2023-10-19T07:32:49;97621.48;;;15.06;100.00
55755;BME280;41674;52.290;-1.474;2023-10-19T07:35:21;97622.40;;;15.55;100.00
55755;BME280;41674;52.290;-1.474;2023-10-19T07:37:47;97625.98;;;15.51;100.00
55755;BME280;41674;52.290;-1.474;2023-10-19T07:40:16;97623.24;;;15.67;100.00
55755;BME280;41674;52.290;-1.474;2023-10-19T07:42:46;97623.94;;;15.88;100.00
55755;BME280;41674;52.290;-1.474;2023-10-19T07:45:15;97627.99;;;15.10;100.00
55755;BME280;41674;52.290;-1.474;2023-10-19T07:47:45;97626.93;;;14.98;100.00
55755;BME280;41674;52.290;-1.474;2023-10-19T07:50:14;97633.61;;;15.17;100.00
55755;BME280;41674;52.290;-1.474;2023-10-19T07:52:45;97632.41;;;15.35;100.00
55755;BME280;41674;52.290;-1.474;2023-10-19T07:55:13;97637.57;;;15.67;100.00
55755;BME280;41674;52.290;-1.474;2023-10-19T07:57:43;97639.82;;;15.26;100.00
55755;BME280;41674;52.290;-1.474;2023-10-19T08:00:13;97640.37;;;15.14;100.00
55755;BME280;41674;52.290;-1.474;2023-10-19T08:02:42;97643.96;;;15.05;100.00
55755;BME280;41674;52.290;-1.474;2023-10-19T08:05:12;97638.71;;;14.80;100.00
55755;BME280;41674;52.290;-1.474;2023-10-19T08:07:41;97638.96;;;14.69;100.00
55755;BME280;41674;52.290;-1.474;2023-10-19T08:10:12;97637.13;;;14.90;100.00
55755;BME280;41674;52.290;-1.474;2023-10-19T08:12:42;97632.67;;;14.99;100.00
55755;BME280;41674;52.290;-1.474;2023-10-19T08:15:10;97634.50;;;15.30;100.00
55755;BME280;41674;52.290;-1.474;2023-10-19T08:17:39;97638.24;;;15.65;100.00
55755;BME280;41674;52.290;-1.474;2023-10-19T08:20:11;97640.53;;;15.16;100.00
55755;BME280;41674;52.290;-1.474;2023-10-19T08:22:38;97637.36;;;15.84;100.00
55755;BME280;41674;52.290;-1.474;2023-10-19T08:25:09;97643.36;;;16.21;100.00
55755;BME280;41674;52.290;-1.474;2023-10-19T08:27:38;97646.49;;;15.56;100.00
55755;BME280;41674;52.290;-1.474;2023-10-19T08:30:07;97647.86;;;15.34;100.00
55755;BME280;41674;52.290;-1.474;2023-10-19T08:32:37;97653.42;;;15.03;100.00
55755;BME280;41674;52.290;-1.474;2023-10-19T08:35:09;97660.03;;;15.71;100.00
55755;BME280;41674;52.290;-1.474;2023-10-19T08:37:41;97663.59;;;14.90;100.00
55755;BME280;41674;52.290;-1.474;2023-10-19T08:40:13;97668.57;;;14.20;100.00
55755;BME280;41674;52.290;-1.474;2023-10-19T08:42:35;97661.28;;;14.07;100.00
55755;BME280;41674;52.290;-1.474;2023-10-19T08:45:06;97663.08;;;14.26;100.00
55755;BME280;41674;52.290;-1.474;2023-10-19T08:47:35;97661.38;;;14.35;100.00
55755;BME280;41674;52.290;-1.474;2023-10-19T08:50:05;97655.96;;;15.08;100.00
55755;BME280;41674;52.290;-1.474;2023-10-19T08:52:33;97661.50;;;14.00;100.00
55755;BME280;41674;52.290;-1.474;2023-10-19T08:55:03;97664.61;;;13.87;100.00
55755;BME280;41674;52.290;-1.474;2023-10-19T08:57:32;97662.10;;;14.36;100.00
55755;BME280;41674;52.290;-1.474;2023-10-19T09:00:02;97660.00;;;14.40;100.00
55755;BME280;41674;52.290;-1.474;2023-10-19T09:02:31;97663.49;;;15.21;100.00
55755;BME280;41674;52.290;-1.474;2023-10-19T09:05:06;97665.67;;;15.05;100.00
55755;BME280;41674;52.290;-1.474;2023-10-19T09:07:30;97665.01;;;15.30;100.00
55755;BME280;41674;52.290;-1.474;2023-10-19T09:10:00;97661.36;;;15.48;100.00
55755;BME280;41674;52.290;-1.474;2023-10-19T09:12:29;97662.64;;;16.42;100.00
55755;BME280;41674;52.290;-1.474;2023-10-19T09:14:59;97656.94;;;16.48;100.00
55755;BME280;41674;52.290;-1.474;2023-10-19T09:17:29;97658.76;;;16.75;100.00
55755;BME280;41674;52.290;-1.474;2023-10-19T09:19:58;97653.29;;;16.88;100.00
55755;BME280;41674;52.290;-1.474;2023-10-19T09:22:34;97654.53;;;16.78;100.00
55755;BME280;41674;52.290;-1.474;2023-10-19T09:24:57;97657.73;;;16.84;100.00
55755;BME280;41674;52.290;-1.474;2023-10-19T09:27:26;97656.92;;;16.47;100.00
55755;BME280;41674;52.290;-1.474;2023-10-19T09:29:56;97654.92;;;16.93;100.00
55755;BME280;41674;52.290;-1.474;2023-10-19T09:32:26;97657.49;;;17.45;100.00
55755;BME280;41674;52.290;-1.474;2023-10-19T09:34:55;97661.01;;;17.07;100.00
55755;BME280;41674;52.290;-1.474;2023-10-19T09:37:24;97655.96;;;16.93;100.00
55755;BME280;41674;52.290;-1.474;2023-10-19T09:39:54;97656.05;;;17.41;100.00
55755;BME280;41674;52.290;-1.474;2023-10-19T09:42:24;97654.62;;;17.24;100.00
55755;BME280;41674;52.290;-1.474;2023-10-19T09:44:58;97653.43;;;17.93;99.79
55755;BME280;41674;52.290;-1.474;2023-10-19T09:47:29;97652.14;;;17.70;100.00
55755;BME280;41674;52.290;-1.474;2023-10-19T09:49:52;97655.80;;;18.25;98.68
55755;BME280;41674;52.290;-1.474;2023-10-19T09:52:22;97656.96;;;18.21;97.82
55755;BME280;41674;52.290;-1.474;2023-10-19T09:54:57;97662.99;;;16.78;100.00
55755;BME280;41674;52.290;-1.474;2023-10-19T09:57:27;97661.21;;;17.37;99.71
55755;BME280;41674;52.290;-1.474;2023-10-19T10:00:02;97663.29;;;17.24;98.40
55755;BME280;41674;52.290;-1.474;2023-10-19T10:02:20;97659.91;;;18.10;95.58
55755;BME280;41674;52.290;-1.474;2023-10-19T10:04:50;97655.24;;;17.64;96.92
55755;BME280;41674;52.290;-1.474;2023-10-19T10:07:19;97656.64;;;17.90;96.05
55755;BME280;41674;52.290;-1.474;2023-10-19T10:09:49;97664.93;;;17.34;98.77
55755;BME280;41674;52.290;-1.474;2023-10-19T10:12:21;97666.58;;;16.28;100.00
55755;BME280;41674;52.290;-1.474;2023-10-19T10:14:56;97667.50;;;16.66;100.00
55755;BME280;41674;52.290;-1.474;2023-10-19T10:17:18;97664.48;;;17.57;100.00
55755;BME280;41674;52.290;-1.474;2023-10-19T10:19:47;97661.47;;;17.36;100.00
55755;BME280;41674;52.290;-1.474;2023-10-19T10:22:21;97660.80;;;17.19;100.00
55755;BME280;41674;52.290;-1.474;2023-10-19T10:24:47;97665.12;;;16.38;100.00
55755;BME280;41674;52.290;-1.474;2023-10-19T10:27:16;97669.64;;;16.79;100.00
55755;BME280;41674;52.290;-1.474;2023-10-19T10:29:55;97668.40;;;17.63;100.00
55755;BME280;41674;52.290;-1.474;2023-10-19T10:34:44;97671.07;;;17.48;100.00
55755;BME280;41674;52.290;-1.474;2023-10-19T10:37:13;97672.42;;;16.92;100.00
55755;BME280;41674;52.290;-1.474;2023-10-19T10:39:43;97670.07;;;16.39;100.00
55755;BME280;41674;52.290;-1.474;2023-10-19T10:42:12;97671.76;;;16.43;100.00
55755;BME280;41674;52.290;-1.474;2023-10-19T10:44:43;97669.06;;;15.93;100.00
55755;BME280;41674;52.290;-1.474;2023-10-19T10:47:16;97669.20;;;16.36;100.00
55755;BME280;41674;52.290;-1.474;2023-10-19T10:49:48;97671.71;;;16.42;100.00
55755;BME280;41674;52.290;-1.474;2023-10-19T10:52:11;97666.65;;;16.57;100.00
55755;BME280;41674;52.290;-1.474;2023-10-19T10:54:40;97668.81;;;16.87;100.00
55755;BME280;41674;52.290;-1.474;2023-10-19T10:57:10;97666.81;;;16.64;100.00
55755;BME280;41674;52.290;-1.474;2023-10-19T10:59:39;97658.70;;;15.90;100.00
55755;BME280;41674;52.290;-1.474;2023-10-19T11:02:16;97664.19;;;16.89;100.00
55755;BME280;41674;52.290;-1.474;2023-10-19T11:04:43;97657.39;;;17.92;100.00
55755;BME280;41674;52.290;-1.474;2023-10-19T11:07:17;97660.82;;;17.29;100.00
55755;BME280;41674;52.290;-1.474;2023-10-19T11:09:43;97658.56;;;17.59;100.00
55755;BME280;41674;52.290;-1.474;2023-10-19T11:12:11;97664.56;;;17.64;100.00
55755;BME280;41674;52.290;-1.474;2023-10-19T11:14:36;97664.83;;;16.60;100.00
55755;BME280;41674;52.290;-1.474;2023-10-19T11:17:12;97663.71;;;17.13;100.00
55755;BME280;41674;52.290;-1.474;2023-10-19T11:19:39;97662.90;;;16.82;100.00
55755;BME280;41674;52.290;-1.474;2023-10-19T11:22:09;97659.02;;;16.67;100.00
55755;BME280;41674;52.290;-1.474;2023-10-19T11:24:34;97658.49;;;16.50;100.00
55755;BME280;41674;52.290;-1.474;2023-10-19T11:27:04;97662.71;;;17.04;100.00
55755;BME280;41674;52.290;-1.474;2023-10-19T11:29:33;97657.78;;;16.04;100.00
55755;BME280;41674;52.290;-1.474;2023-10-19T11:32:03;97663.20;;;16.75;100.00
55755;BME280;41674;52.290;-1.474;2023-10-19T11:34:32;97653.64;;;17.43;100.00
55755;BME280;41674;52.290;-1.474;2023-10-19T11:37:02;97641.54;;;17.90;99.03
55755;BME280;41674;52.290;-1.474;2023-10-19T11:39:31;97640.89;;;18.04;98.52
55755;BME280;41674;52.290;-1.474;2023-10-19T11:42:01;97636.61;;;18.11;96.61
55755;BME280;41674;52.290;-1.474;2023-10-19T11:44:30;97635.28;;;17.71;100.00
55755;BME280;41674;52.290;-1.474;2023-10-19T11:47:00;97637.73;;;18.00;98.23
55755;BME280;41674;52.290;-1.474;2023-10-19T11:49:29;97637.40;;;18.22;96.95
55755;BME280;41674;52.290;-1.474;2023-10-19T11:51:59;97633.28;;;18.38;96.61
55755;BME280;41674;52.290;-1.474;2023-10-19T11:54:28;97633.71;;;18.79;94.10
55755;BME280;41674;52.290;-1.474;2023-10-19T11:56:58;97629.42;;;19.26;90.95
55755;BME280;41674;52.290;-1.474;2023-10-19T11:59:27;97627.20;;;17.52;98.13
55755;BME280;41674;52.290;-1.474;2023-10-19T12:01:57;97624.95;;;16.96;100.00
55755;BME280;41674;52.290;-1.474;2023-10-19T12:04:26;97632.06;;;16.68;100.00
55755;BME280;41674;52.290;-1.474;2023-10-19T12:06:56;97634.49;;;16.59;100.00
55755;BME280;41674;52.290;-1.474;2023-10-19T12:09:26;97628.81;;;17.09;100.00
55755;BME280;41674;52.290;-1.474;2023-10-19T12:11:55;97621.29;;;17.68;98.74
55755;BME280;41674;52.290;-1.474;2023-10-19T12:14:26;97620.89;;;17.11;100.00
55755;BME280;41674;52.290;-1.474;2023-10-19T12:16:55;97617.46;;;17.70;96.85
55755;BME280;41674;52.290;-1.474;2023-10-19T12:19:24;97612.35;;;17.56;97.00
55755;BME280;41674;52.290;-1.474;2023-10-19T12:21:54;97610.08;;;17.74;98.20
55755;BME280;41674;52.290;-1.474;2023-10-19T12:24:23;97610.07;;;17.86;96.46
55755;BME280;41674;52.290;-1.474;2023-10-19T12:26:52;97605.41;;;18.99;94.16
55755;BME280;41674;52.290;-1.474;2023-10-19T12:29:22;97599.40;;;18.73;90.39
55755;BME280;41674;52.290;-1.474;2023-10-19T12:31:51;97609.95;;;18.21;89.72
55755;BME280;41674;52.290;-1.474;2023-10-19T12:34:20;97600.94;;;18.51;90.60
55755;BME280;41674;52.290;-1.474;2023-10-19T12:36:50;97592.83;;;18.80;87.53
55755;BME280;41674;52.290;-1.474;2023-10-19T12:39:19;97598.60;;;18.54;90.06
55755;BME280;41674;52.290;-1.474;2023-10-19T12:41:49;97593.61;;;19.06;86.88
55755;BME280;41674;52.290;-1.474;2023-10-19T12:44:18;97601.77;;;19.09;87.21
55755;BME280;41674;52.290;-1.474;2023-10-19T12:46:48;97596.86;;;19.36;88.62
55755;BME280;41674;52.290;-1.474;2023-10-19T12:49:17;97597.84;;;19.84;82.39
55755;BME280;41674;52.290;-1.474;2023-10-19T12:51:47;97600.11;;;19.47;83.19
55755;BME280;41674;52.290;-1.474;2023-10-19T12:54:16;97597.70;;;19.42;83.46
55755;BME280;41674;52.290;-1.474;2023-10-19T12:56:46;97596.55;;;20.03;83.02
55755;BME280;41674;52.290;-1.474;2023-10-19T12:59:15;97593.40;;;19.55;82.89
55755;BME280;41674;52.290;-1.474;2023-10-19T13:01:44;97592.96;;;18.83;85.78
55755;BME280;41674;52.290;-1.474;2023-10-19T13:04:14;97600.95;;;18.22;88.81